sensor_id;sensor_type;location;lat;lon;timestamp;noise_LAeq;noise_LA_min;noise_LA_max;noise_LA01;noise_LA95
46393;Laerm;32099;53.588;10.176;2023-08-20T00:01:41;34.46;32.27;38.92;;
46393;Laerm;32099;53.588;10.176;2023-08-20T00:04:07;34.42;32.23;38.61;;
46393;Laerm;32099;53.588;10.176;2023-08-20T00:06:33;35.55;32.31;46.65;;
46393;Laerm;32099;53.588;10.176;2023-08-20T00:08:58;34.39;32.29;40.82;;
46393;Laerm;32099;53.588;10.176;2023-08-20T00:11:23;34.47;32.10;53.47;;
46393;Laerm;32099;53.588;10.176;2023-08-20T00:13:48;34.88;32.36;40.82;;
46393;Laerm;32099;53.588;10.176;2023-08-20T00:16:14;34.31;31.99;43.29;;
46393;Laerm;32099;53.588;10.176;2023-08-20T00:18:39;34.43;32.16;39.88;;
46393;Laerm;32099;53.588;10.176;2023-08-20T00:21:05;34.53;32.09;41.24;;
46393;Laerm;32099;53.588;10.176;2023-08-20T00:23:31;34.17;31.95;39.86;;
46393;Laerm;32099;53.588;10.176;2023-08-20T00:25:57;34.13;32.24;49.93;;
46393;Laerm;32099;53.588;10.176;2023-08-20T00:28:22;34.26;32.00;55.45;;
46393;Laerm;32099;53.588;10.176;2023-08-20T00:30:47;34.08;32.11;38.87;;
46393;Laerm;32099;53.588;10.176;2023-08-20T00:33:14;34.27;32.16;40.52;;
46393;Laerm;32099;53.588;10.176;2023-08-20T00:35:39;34.79;32.19;41.01;;
46393;Laerm;32099;53.588;10.176;2023-08-20T00:38:05;34.19;32.01;37.42;;
46393;Laerm;32099;53.588;10.176;2023-08-20T00:40:31;34.26;32.34;46.01;;
46393;Laerm;32099;53.588;10.176;2023-08-20T00:42:56;35.77;32.27;62.60;;
46393;Laerm;32099;53.588;10.176;2023-08-20T00:45:22;35.26;32.35;44.78;;
46393;Laerm;32099;53.588;10.176;2023-08-20T00:47:48;34.99;32.35;45.82;;
46393;Laerm;32099;53.588;10.176;2023-08-20T00:50:13;34.81;32.57;44.43;;
46393;Laerm;32099;53.588;10.176;2023-08-20T00:52:39;34.17;32.13;43.50;;
46393;Laerm;32099;53.588;10.176;2023-08-20T00:55:10;34.10;32.14;36.89;;
46393;Laerm;32099;53.588;10.176;2023-08-20T00:57:37;35.45;32.73;43.70;;
46393;Laerm;32099;53.588;10.176;2023-08-20T01:00:03;35.95;32.30;50.69;;
46393;Laerm;32099;53.588;10.176;2023-08-20T01:02:32;34.89;32.17;54.11;;
46393;Laerm;32099;53.588;10.176;2023-08-20T01:04:58;34.53;32.09;41.39;;
46393;Laerm;32099;53.588;10.176;2023-08-20T01:10:16;33.88;31.91;37.26;;
46393;Laerm;32099;53.588;10.176;2023-08-20T01:12:43;34.31;32.33;42.55;;
46393;Laerm;32099;53.588;10.176;2023-08-20T01:15:10;34.06;32.25;49.22;;
46393;Laerm;32099;53.588;10.176;2023-08-20T01:17:42;34.64;32.08;40.70;;
46393;Laerm;32099;53.588;10.176;2023-08-20T01:20:08;34.24;32.22;37.51;;
46393;Laerm;32099;53.588;10.176;2023-08-20T01:28:31;36.18;32.18;53.03;;
46393;Laerm;32099;53.588;10.176;2023-08-20T01:30:58;34.11;32.03;41.67;;
46393;Laerm;32099;53.588;10.176;2023-08-20T01:33:24;33.88;32.00;38.93;;
46393;Laerm;32099;53.588;10.176;2023-08-20T01:35:53;33.73;31.99;36.38;;
46393;Laerm;32099;53.588;10.176;2023-08-20T01:38:18;34.81;31.99;45.56;;
46393;Laerm;32099;53.588;10.176;2023-08-20T01:40:44;33.65;31.84;44.04;;
46393;Laerm;32099;53.588;10.176;2023-08-20T01:43:09;33.78;32.09;40.38;;
46393;Laerm;32099;53.588;10.176;2023-08-20T01:45:35;34.93;32.14;43.79;;
46393;Laerm;32099;53.588;10.176;2023-08-20T01:48:00;33.84;31.98;39.36;;
46393;Laerm;32099;53.588;10.176;2023-08-20T01:50:25;33.72;31.90;37.86;;
46393;Laerm;32099;53.588;10.176;2023-08-20T01:52:51;33.82;31.89;42.09;;
46393;Laerm;32099;53.588;10.176;2023-08-20T01:55:16;33.99;32.11;39.11;;
46393;Laerm;32099;53.588;10.176;2023-08-20T01:57:41;36.00;32.33;47.12;;
46393;Laerm;32099;53.588;10.176;2023-08-20T02:00:09;34.88;32.18;45.90;;
46393;Laerm;32099;53.588;10.176;2023-08-20T02:02:35;33.98;32.01;37.88;;
46393;Laerm;32099;53.588;10.176;2023-08-20T02:05:01;35.60;32.20;47.23;;
46393;Laerm;32099;53.588;10.176;2023-08-20T02:07:26;34.08;31.97;40.41;;
46393;Laerm;32099;53.588;10.176;2023-08-20T02:09:51;33.71;31.93;39.75;;
46393;Laerm;32099;53.588;10.176;2023-08-20T02:12:17;33.59;31.78;42.04;;
46393;Laerm;32099;53.588;10.176;2023-08-20T02:14:43;35.08;31.93;42.84;;
46393;Laerm;32099;53.588;10.176;2023-08-20T02:17:08;34.10;32.04;40.23;;
46393;Laerm;32099;53.588;10.176;2023-08-20T02:19:34;34.01;32.05;40.41;;
46393;Laerm;32099;53.588;10.176;2023-08-20T02:21:59;33.80;32.24;36.94;;
46393;Laerm;32099;53.588;10.176;2023-08-20T02:24:24;33.73;32.00;38.17;;
46393;Laerm;32099;53.588;10.176;2023-08-20T02:26:49;34.36;32.26;38.45;;
46393;Laerm;32099;53.588;10.176;2023-08-20T02:29:15;33.90;31.83;38.25;;
46393;Laerm;32099;53.588;10.176;2023-08-20T02:31:40;34.14;32.25;43.01;;
46393;Laerm;32099;53.588;10.176;2023-08-20T02:34:05;34.41;32.18;41.60;;
46393;Laerm;32099;53.588;10.176;2023-08-20T02:36:31;36.54;31.76;48.09;;
46393;Laerm;32099;53.588;10.176;2023-08-20T02:38:56;33.86;31.85;36.69;;
46393;Laerm;32099;53.588;10.176;2023-08-20T02:41:21;33.63;31.97;39.75;;
46393;Laerm;32099;53.588;10.176;2023-08-20T02:43:47;34.19;32.13;54.08;;
46393;Laerm;32099;53.588;10.176;2023-08-20T02:46:13;34.85;32.06;46.99;;
46393;Laerm;32099;53.588;10.176;2023-08-20T02:48:38;35.03;32.16;47.74;;
46393;Laerm;32099;53.588;10.176;2023-08-20T02:51:04;33.51;31.77;40.03;;
46393;Laerm;32099;53.588;10.176;2023-08-20T02:53:29;33.70;32.08;36.20;;
46393;Laerm;32099;53.588;10.176;2023-08-20T02:55:54;33.94;32.25;43.53;;
46393;Laerm;32099;53.588;10.176;2023-08-20T02:58:19;35.00;32.18;44.31;;
46393;Laerm;32099;53.588;10.176;2023-08-20T03:00:45;34.38;31.94;40.80;;
46393;Laerm;32099;53.588;10.176;2023-08-20T03:03:11;33.81;31.98;40.76;;
46393;Laerm;32099;53.588;10.176;2023-08-20T03:05:39;34.08;32.12;37.88;;
46393;Laerm;32099;53.588;10.176;2023-08-20T03:08:05;34.87;32.20;44.88;;
46393;Laerm;32099;53.588;10.176;2023-08-20T03:10:31;33.88;31.77;40.17;;
46393;Laerm;32099;53.588;10.176;2023-08-20T03:12:58;33.69;31.82;36.27;;
46393;Laerm;32099;53.588;10.176;2023-08-20T03:15:24;34.33;32.01;41.26;;
46393;Laerm;32099;53.588;10.176;2023-08-20T03:17:49;35.76;32.37;49.69;;
46393;Laerm;32099;53.588;10.176;2023-08-20T03:20:14;34.71;32.44;44.63;;
46393;Laerm;32099;53.588;10.176;2023-08-20T03:22:39;37.84;32.55;44.48;;
46393;Laerm;32099;53.588;10.176;2023-08-20T03:25:05;35.03;32.50;51.32;;
46393;Laerm;32099;53.588;10.176;2023-08-20T03:27:31;34.24;32.45;43.93;;
46393;Laerm;32099;53.588;10.176;2023-08-20T03:29:56;34.74;32.25;45.31;;
46393;Laerm;32099;53.588;10.176;2023-08-20T03:32:22;34.80;32.31;44.93;;
46393;Laerm;32099;53.588;10.176;2023-08-20T03:34:47;35.19;32.42;48.45;;
46393;Laerm;32099;53.588;10.176;2023-08-20T03:37:13;47.47;32.57;66.13;;
46393;Laerm;32099;53.588;10.176;2023-08-20T03:39:38;34.26;32.50;40.59;;
46393;Laerm;32099;53.588;10.176;2023-08-20T03:42:04;34.29;32.30;42.69;;
46393;Laerm;32099;53.588;10.176;2023-08-20T03:44:30;34.40;32.06;47.13;;
46393;Laerm;32099;53.588;10.176;2023-08-20T03:46:55;35.17;32.35;44.71;;
46393;Laerm;32099;53.588;10.176;2023-08-20T03:49:20;34.43;31.77;42.74;;
46393;Laerm;32099;53.588;10.176;2023-08-20T03:51:47;35.07;32.36;44.44;;
46393;Laerm;32099;53.588;10.176;2023-08-20T03:54:12;34.44;32.13;41.58;;
46393;Laerm;32099;53.588;10.176;2023-08-20T03:56:37;34.84;32.40;50.30;;
46393;Laerm;32099;53.588;10.176;2023-08-20T03:59:03;35.77;32.70;47.54;;
46393;Laerm;32099;53.588;10.176;2023-08-20T04:01:28;34.73;32.05;42.37;;
46393;Laerm;32099;53.588;10.176;2023-08-20T04:03:53;34.62;32.48;40.80;;
46393;Laerm;32099;53.588;10.176;2023-08-20T04:06:19;34.83;32.54;43.58;;
46393;Laerm;32099;53.588;10.176;2023-08-20T04:08:44;34.82;32.56;39.70;;
46393;Laerm;32099;53.588;10.176;2023-08-20T04:11:09;35.69;32.97;41.22;;
46393;Laerm;32099;53.588;10.176;2023-08-20T04:13:35;35.84;32.48;44.87;;
46393;Laerm;32099;53.588;10.176;2023-08-20T04:16:00;47.47;32.24;59.21;;
46393;Laerm;32099;53.588;10.176;2023-08-20T04:18:25;37.89;32.15;48.01;;
46393;Laerm;32099;53.588;10.176;2023-08-20T04:20:51;34.98;32.08;42.18;;
46393;Laerm;32099;53.588;10.176;2023-08-20T04:23:17;35.65;32.57;45.82;;
46393;Laerm;32099;53.588;10.176;2023-08-20T04:25:43;43.58;32.67;53.88;;
46393;Laerm;32099;53.588;10.176;2023-08-20T04:28:09;35.81;32.82;42.42;;
46393;Laerm;32099;53.588;10.176;2023-08-20T04:30:35;36.06;32.59;42.56;;
46393;Laerm;32099;53.588;10.176;2023-08-20T04:33:01;36.44;32.82;47.89;;
46393;Laerm;32099;53.588;10.176;2023-08-20T04:35:26;36.54;32.93;42.16;;
46393;Laerm;32099;53.588;10.176;2023-08-20T04:37:51;47.83;34.29;56.06;;
46393;Laerm;32099;53.588;10.176;2023-08-20T04:40:16;45.31;33.04;56.39;;
46393;Laerm;32099;53.588;10.176;2023-08-20T04:42:42;45.87;33.21;56.39;;
46393;Laerm;32099;53.588;10.176;2023-08-20T04:45:07;37.78;32.86;50.45;;
46393;Laerm;32099;53.588;10.176;2023-08-20T04:47:33;50.27;32.77;60.67;;
46393;Laerm;32099;53.588;10.176;2023-08-20T04:49:58;34.71;32.48;50.52;;
46393;Laerm;32099;53.588;10.176;2023-08-20T04:52:24;35.61;32.46;41.22;;
46393;Laerm;32099;53.588;10.176;2023-08-20T04:54:49;48.94;32.77;59.75;;
46393;Laerm;32099;53.588;10.176;2023-08-20T04:57:14;35.25;31.93;46.38;;
46393;Laerm;32099;53.588;10.176;2023-08-20T04:59:41;35.49;32.58;45.74;;
46393;Laerm;32099;53.588;10.176;2023-08-20T05:02:10;36.72;32.64;50.41;;
46393;Laerm;32099;53.588;10.176;2023-08-20T05:04:36;36.03;32.60;43.41;;
46393;Laerm;32099;53.588;10.176;2023-08-20T05:07:01;36.76;33.32;49.66;;
46393;Laerm;32099;53.588;10.176;2023-08-20T05:09:26;50.20;33.35;61.94;;
46393;Laerm;32099;53.588;10.176;2023-08-20T05:11:52;36.77;32.42;47.00;;
46393;Laerm;32099;53.588;10.176;2023-08-20T05:14:17;37.81;32.41;47.17;;
46393;Laerm;32099;53.588;10.176;2023-08-20T05:16:42;36.29;32.28;46.08;;
46393;Laerm;32099;53.588;10.176;2023-08-20T05:19:07;35.66;31.63;43.97;;
46393;Laerm;32099;53.588;10.176;2023-08-20T05:21:33;48.19;32.11;67.09;;
46393;Laerm;32099;53.588;10.176;2023-08-20T05:23:58;36.75;32.65;44.47;;
46393;Laerm;32099;53.588;10.176;2023-08-20T05:26:23;39.68;33.11;50.67;;
46393;Laerm;32099;53.588;10.176;2023-08-20T05:28:49;37.55;32.54;58.95;;
46393;Laerm;32099;53.588;10.176;2023-08-20T05:31:14;37.06;32.31;49.66;;
46393;Laerm;32099;53.588;10.176;2023-08-20T05:33:39;42.07;32.84;52.47;;
46393;Laerm;32099;53.588;10.176;2023-08-20T05:36:04;52.64;32.62;68.77;;
46393;Laerm;32099;53.588;10.176;2023-08-20T05:38:30;58.41;33.67;82.13;;
46393;Laerm;32099;53.588;10.176;2023-08-20T05:40:55;47.69;33.24;74.32;;
46393;Laerm;32099;53.588;10.176;2023-08-20T05:43:20;38.33;32.82;62.61;;
46393;Laerm;32099;53.588;10.176;2023-08-20T05:45:46;46.18;33.26;65.54;;
46393;Laerm;32099;53.588;10.176;2023-08-20T05:48:11;49.35;32.99;66.89;;
46393;Laerm;32099;53.588;10.176;2023-08-20T05:50:36;35.80;32.64;51.54;;
46393;Laerm;32099;53.588;10.176;2023-08-20T05:53:02;46.80;32.38;65.73;;
46393;Laerm;32099;53.588;10.176;2023-08-20T05:55:27;35.26;32.44;51.67;;
46393;Laerm;32099;53.588;10.176;2023-08-20T05:57:52;36.43;31.74;55.16;;
46393;Laerm;32099;53.588;10.176;2023-08-20T06:00:18;45.36;31.69;55.33;;
46393;Laerm;32099;53.588;10.176;2023-08-20T06:02:43;35.54;31.81;53.87;;
46393;Laerm;32099;53.588;10.176;2023-08-20T06:05:09;34.56;31.69;47.81;;
46393;Laerm;32099;53.588;10.176;2023-08-20T06:07:34;48.26;32.17;68.02;;
46393;Laerm;32099;53.588;10.176;2023-08-20T06:09:59;49.39;32.11;68.15;;
46393;Laerm;32099;53.588;10.176;2023-08-20T06:12:25;41.10;31.75;52.56;;
46393;Laerm;32099;53.588;10.176;2023-08-20T06:14:50;48.46;32.24;68.78;;
46393;Laerm;32099;53.588;10.176;2023-08-20T06:17:15;37.14;32.60;45.48;;
46393;Laerm;32099;53.588;10.176;2023-08-20T06:19:41;38.57;33.74;49.50;;
46393;Laerm;32099;53.588;10.176;2023-08-20T06:22:06;50.63;34.00;69.49;;
46393;Laerm;32099;53.588;10.176;2023-08-20T06:24:31;50.09;32.96;70.67;;
46393;Laerm;32099;53.588;10.176;2023-08-20T06:26:57;43.30;32.22;68.11;;
46393;Laerm;32099;53.588;10.176;2023-08-20T06:29:22;35.81;32.25;48.43;;
46393;Laerm;32099;53.588;10.176;2023-08-20T06:31:48;48.12;32.09;67.53;;
46393;Laerm;32099;53.588;10.176;2023-08-20T06:34:14;35.09;32.07;43.98;;
46393;Laerm;32099;53.588;10.176;2023-08-20T06:36:39;36.04;32.45;47.03;;
46393;Laerm;32099;53.588;10.176;2023-08-20T06:39:04;36.60;32.79;49.83;;
46393;Laerm;32099;53.588;10.176;2023-08-20T06:41:30;35.73;32.44;51.39;;
46393;Laerm;32099;53.588;10.176;2023-08-20T06:43:55;38.23;32.99;57.92;;
46393;Laerm;32099;53.588;10.176;2023-08-20T06:46:20;45.33;33.34;64.51;;
46393;Laerm;32099;53.588;10.176;2023-08-20T06:48:45;46.70;32.88;65.76;;
46393;Laerm;32099;53.588;10.176;2023-08-20T06:51:12;36.82;32.59;57.16;;
46393;Laerm;32099;53.588;10.176;2023-08-20T06:53:37;40.02;32.55;61.52;;
46393;Laerm;32099;53.588;10.176;2023-08-20T06:56:03;38.10;32.86;61.22;;
46393;Laerm;32099;53.588;10.176;2023-08-20T06:58:29;44.49;32.99;64.28;;
46393;Laerm;32099;53.588;10.176;2023-08-20T07:00:54;47.24;32.63;63.58;;
46393;Laerm;32099;53.588;10.176;2023-08-20T07:03:20;38.91;33.32;49.10;;
46393;Laerm;32099;53.588;10.176;2023-08-20T07:05:45;37.94;32.86;49.19;;
46393;Laerm;32099;53.588;10.176;2023-08-20T07:08:10;38.72;32.48;54.92;;
46393;Laerm;32099;53.588;10.176;2023-08-20T07:10:35;52.71;33.08;68.56;;
46393;Laerm;32099;53.588;10.176;2023-08-20T07:13:01;35.21;32.49;48.54;;
46393;Laerm;32099;53.588;10.176;2023-08-20T07:15:26;36.55;32.48;48.55;;
46393;Laerm;32099;53.588;10.176;2023-08-20T07:17:51;35.63;32.46;45.31;;
46393;Laerm;32099;53.588;10.176;2023-08-20T07:20:16;51.40;32.85;69.01;;
46393;Laerm;32099;53.588;10.176;2023-08-20T07:22:42;35.33;32.91;43.23;;
46393;Laerm;32099;53.588;10.176;2023-08-20T07:25:08;37.49;33.06;46.44;;
46393;Laerm;32099;53.588;10.176;2023-08-20T07:27:33;49.93;33.76;68.56;;
46393;Laerm;32099;53.588;10.176;2023-08-20T07:29:58;50.40;33.08;68.47;;
46393;Laerm;32099;53.588;10.176;2023-08-20T07:32:24;40.88;33.88;56.89;;
46393;Laerm;32099;53.588;10.176;2023-08-20T07:34:49;46.10;33.19;65.20;;
46393;Laerm;32099;53.588;10.176;2023-08-20T07:37:14;49.58;33.34;69.76;;
46393;Laerm;32099;53.588;10.176;2023-08-20T07:39:39;36.19;33.22;46.66;;
46393;Laerm;32099;53.588;10.176;2023-08-20T07:42:05;38.59;33.63;58.08;;
46393;Laerm;32099;53.588;10.176;2023-08-20T07:44:31;36.08;32.83;51.86;;
46393;Laerm;32099;53.588;10.176;2023-08-20T07:46:56;40.08;33.02;58.34;;
46393;Laerm;32099;53.588;10.176;2023-08-20T07:49:22;38.85;33.10;49.27;;
46393;Laerm;32099;53.588;10.176;2023-08-20T07:51:47;51.20;39.63;70.37;;
46393;Laerm;32099;53.588;10.176;2023-08-20T07:54:13;48.76;39.40;65.78;;
46393;Laerm;32099;53.588;10.176;2023-08-20T07:56:38;45.34;39.06;56.39;;
46393;Laerm;32099;53.588;10.176;2023-08-20T07:59:04;45.68;38.98;58.15;;
46393;Laerm;32099;53.588;10.176;2023-08-20T08:01:29;51.04;34.55;69.41;;
46393;Laerm;32099;53.588;10.176;2023-08-20T08:03:54;49.02;33.34;67.55;;
46393;Laerm;32099;53.588;10.176;2023-08-20T08:06:20;47.52;33.62;58.51;;
46393;Laerm;32099;53.588;10.176;2023-08-20T08:08:48;48.78;34.70;65.90;;
46393;Laerm;32099;53.588;10.176;2023-08-20T08:11:13;38.53;33.97;51.66;;
46393;Laerm;32099;53.588;10.176;2023-08-20T08:13:38;52.06;37.03;67.41;;
46393;Laerm;32099;53.588;10.176;2023-08-20T08:16:04;48.14;35.06;65.42;;
46393;Laerm;32099;53.588;10.176;2023-08-20T08:18:29;51.59;34.05;63.20;;
46393;Laerm;32099;53.588;10.176;2023-08-20T08:20:54;43.60;34.44;56.20;;
46393;Laerm;32099;53.588;10.176;2023-08-20T08:23:19;45.87;34.33;56.75;;
46393;Laerm;32099;53.588;10.176;2023-08-20T08:25:45;54.19;35.21;67.96;;
46393;Laerm;32099;53.588;10.176;2023-08-20T08:28:10;52.41;33.95;72.10;;
46393;Laerm;32099;53.588;10.176;2023-08-20T08:30:37;49.51;34.35;68.14;;
46393;Laerm;32099;53.588;10.176;2023-08-20T08:33:02;48.80;33.17;67.77;;
46393;Laerm;32099;53.588;10.176;2023-08-20T08:35:27;40.94;33.54;56.43;;
46393;Laerm;32099;53.588;10.176;2023-08-20T08:37:53;58.24;33.88;81.87;;
46393;Laerm;32099;53.588;10.176;2023-08-20T08:40:18;42.34;34.39;62.87;;
46393;Laerm;32099;53.588;10.176;2023-08-20T08:42:47;52.53;34.07;74.13;;
46393;Laerm;32099;53.588;10.176;2023-08-20T08:45:13;41.16;33.98;57.05;;
46393;Laerm;32099;53.588;10.176;2023-08-20T08:47:39;41.65;33.91;54.56;;
46393;Laerm;32099;53.588;10.176;2023-08-20T08:50:06;52.06;34.65;70.94;;
46393;Laerm;32099;53.588;10.176;2023-08-20T08:52:33;40.04;34.43;57.13;;
46393;Laerm;32099;53.588;10.176;2023-08-20T08:54:58;46.84;34.03;65.71;;
46393;Laerm;32099;53.588;10.176;2023-08-20T08:57:24;39.89;34.30;54.60;;
46393;Laerm;32099;53.588;10.176;2023-08-20T08:59:49;51.35;34.42;68.79;;
46393;Laerm;32099;53.588;10.176;2023-08-20T09:02:17;43.01;35.29;50.97;;
46393;Laerm;32099;53.588;10.176;2023-08-20T09:04:42;53.05;36.68;71.52;;
46393;Laerm;32099;53.588;10.176;2023-08-20T09:07:14;50.76;35.59;68.99;;
46393;Laerm;32099;53.588;10.176;2023-08-20T09:09:44;49.29;34.56;68.08;;
46393;Laerm;32099;53.588;10.176;2023-08-20T09:12:16;50.78;34.85;67.37;;
46393;Laerm;32099;53.588;10.176;2023-08-20T09:14:49;48.86;35.30;65.61;;
46393;Laerm;32099;53.588;10.176;2023-08-20T09:17:14;45.03;34.75;61.94;;
46393;Laerm;32099;53.588;10.176;2023-08-20T09:19:42;50.34;34.91;65.00;;
46393;Laerm;32099;53.588;10.176;2023-08-20T09:22:08;49.06;34.84;69.67;;
46393;Laerm;32099;53.588;10.176;2023-08-20T09:24:56;37.95;33.48;44.95;;
46393;Laerm;32099;53.588;10.176;2023-08-20T09:27:20;51.16;34.01;70.37;;
46393;Laerm;32099;53.588;10.176;2023-08-20T09:29:51;44.54;34.02;62.99;;
46393;Laerm;32099;53.588;10.176;2023-08-20T09:32:21;52.06;34.33;68.93;;
46393;Laerm;32099;53.588;10.176;2023-08-20T09:34:54;37.79;32.93;48.75;;
46393;Laerm;32099;53.588;10.176;2023-08-20T09:37:21;49.85;33.60;70.62;;
46393;Laerm;32099;53.588;10.176;2023-08-20T09:39:46;44.06;33.73;61.75;;
46393;Laerm;32099;53.588;10.176;2023-08-20T09:42:12;49.69;33.34;66.91;;
46393;Laerm;32099;53.588;10.176;2023-08-20T09:44:43;51.38;33.56;72.81;;
46393;Laerm;32099;53.588;10.176;2023-08-20T09:47:10;45.81;32.75;68.76;;
46393;Laerm;32099;53.588;10.176;2023-08-20T09:49:43;43.79;33.59;63.19;;
46393;Laerm;32099;53.588;10.176;2023-08-20T09:52:11;48.33;33.68;66.21;;
46393;Laerm;32099;53.588;10.176;2023-08-20T09:54:59;43.86;33.20;62.32;;
46393;Laerm;32099;53.588;10.176;2023-08-20T09:57:36;50.60;34.15;70.79;;
46393;Laerm;32099;53.588;10.176;2023-08-20T10:00:03;45.38;34.30;66.18;;
46393;Laerm;32099;53.588;10.176;2023-08-20T10:02:31;47.55;33.23;62.36;;
46393;Laerm;32099;53.588;10.176;2023-08-20T10:04:58;53.91;32.64;70.47;;
46393;Laerm;32099;53.588;10.176;2023-08-20T10:07:28;50.54;33.24;69.18;;
46393;Laerm;32099;53.588;10.176;2023-08-20T10:09:56;39.56;33.64;50.89;;
46393;Laerm;32099;53.588;10.176;2023-08-20T10:12:25;49.49;32.94;69.16;;
46393;Laerm;32099;53.588;10.176;2023-08-20T10:14:51;50.27;32.71;67.21;;
46393;Laerm;32099;53.588;10.176;2023-08-20T10:17:17;36.49;31.72;49.74;;
46393;Laerm;32099;53.588;10.176;2023-08-20T10:19:42;48.84;32.26;78.39;;
46393;Laerm;32099;53.588;10.176;2023-08-20T10:22:08;51.42;33.12;77.74;;
46393;Laerm;32099;53.588;10.176;2023-08-20T10:24:41;50.28;33.42;69.64;;
46393;Laerm;32099;53.588;10.176;2023-08-20T10:27:11;46.72;32.77;67.13;;
46393;Laerm;32099;53.588;10.176;2023-08-20T10:29:40;48.25;33.65;66.78;;
46393;Laerm;32099;53.588;10.176;2023-08-20T10:32:12;48.23;32.60;68.72;;
46393;Laerm;32099;53.588;10.176;2023-08-20T10:34:39;47.00;32.69;66.91;;
46393;Laerm;32099;53.588;10.176;2023-08-20T10:37:13;42.28;32.96;64.87;;
46393;Laerm;32099;53.588;10.176;2023-08-20T10:39:39;44.42;32.61;62.41;;
46393;Laerm;32099;53.588;10.176;2023-08-20T10:45:01;44.49;31.58;64.99;;
46393;Laerm;32099;53.588;10.176;2023-08-20T10:47:42;49.94;32.21;66.55;;
46393;Laerm;32099;53.588;10.176;2023-08-20T10:50:08;50.61;31.90;67.50;;
46393;Laerm;32099;53.588;10.176;2023-08-20T10:52:40;48.74;30.87;67.76;;
46393;Laerm;32099;53.588;10.176;2023-08-20T10:55:09;47.01;30.54;63.88;;
46393;Laerm;32099;53.588;10.176;2023-08-20T10:57:36;46.16;30.59;61.68;;
46393;Laerm;32099;53.588;10.176;2023-08-20T11:00:04;40.10;31.66;59.41;;
46393;Laerm;32099;53.588;10.176;2023-08-20T11:02:40;43.08;31.14;63.73;;
46393;Laerm;32099;53.588;10.176;2023-08-20T11:05:25;48.18;31.14;68.89;;
46393;Laerm;32099;53.588;10.176;2023-08-20T11:07:51;39.53;31.20;54.54;;
46393;Laerm;32099;53.588;10.176;2023-08-20T11:10:17;49.87;32.51;68.78;;
46393;Laerm;32099;53.588;10.176;2023-08-20T11:12:46;45.84;32.02;62.83;;
46393;Laerm;32099;53.588;10.176;2023-08-20T11:15:11;42.73;33.48;60.94;;
46393;Laerm;32099;53.588;10.176;2023-08-20T11:17:41;39.99;32.31;58.71;;
46393;Laerm;32099;53.588;10.176;2023-08-20T11:20:08;48.08;32.56;68.12;;
46393;Laerm;32099;53.588;10.176;2023-08-20T11:22:33;46.49;33.31;62.82;;
46393;Laerm;32099;53.588;10.176;2023-08-20T11:24:59;47.22;34.88;65.18;;
46393;Laerm;32099;53.588;10.176;2023-08-20T11:27:27;47.66;32.71;64.80;;
46393;Laerm;32099;53.588;10.176;2023-08-20T11:29:53;43.05;31.96;62.52;;
46393;Laerm;32099;53.588;10.176;2023-08-20T11:32:19;45.00;31.81;64.40;;
46393;Laerm;32099;53.588;10.176;2023-08-20T11:34:44;38.92;30.62;59.36;;
46393;Laerm;32099;53.588;10.176;2023-08-20T11:37:09;40.64;31.19;61.63;;
46393;Laerm;32099;53.588;10.176;2023-08-20T11:39:36;46.59;31.80;65.54;;
46393;Laerm;32099;53.588;10.176;2023-08-20T11:42:01;44.68;31.55;64.13;;
46393;Laerm;32099;53.588;10.176;2023-08-20T11:44:27;48.82;31.52;65.68;;
46393;Laerm;32099;53.588;10.176;2023-08-20T11:46:53;43.87;31.82;61.62;;
46393;Laerm;32099;53.588;10.176;2023-08-20T11:49:27;45.97;31.79;66.49;;
46393;Laerm;32099;53.588;10.176;2023-08-20T11:51:52;40.76;31.87;59.26;;
46393;Laerm;32099;53.588;10.176;2023-08-20T11:54:18;46.12;31.80;66.09;;
46393;Laerm;32099;53.588;10.176;2023-08-20T11:56:50;47.63;31.58;66.66;;
46393;Laerm;32099;53.588;10.176;2023-08-20T11:59:18;43.87;31.54;61.87;;
46393;Laerm;32099;53.588;10.176;2023-08-20T12:01:50;41.02;30.90;54.85;;
46393;Laerm;32099;53.588;10.176;2023-08-20T12:04:15;39.70;31.90;49.71;;
46393;Laerm;32099;53.588;10.176;2023-08-20T12:06:41;46.34;32.15;67.50;;
46393;Laerm;32099;53.588;10.176;2023-08-20T12:09:23;45.37;31.30;63.83;;
46393;Laerm;32099;53.588;10.176;2023-08-20T12:11:50;36.46;30.87;60.85;;
46393;Laerm;32099;53.588;10.176;2023-08-20T12:14:19;36.84;31.43;53.13;;
46393;Laerm;32099;53.588;10.176;2023-08-20T12:16:45;45.27;33.20;60.71;;
46393;Laerm;32099;53.588;10.176;2023-08-20T12:19:10;49.37;31.41;67.29;;
46393;Laerm;32099;53.588;10.176;2023-08-20T12:21:35;50.55;32.77;67.27;;
46393;Laerm;32099;53.588;10.176;2023-08-20T12:24:01;47.05;32.55;65.39;;
46393;Laerm;32099;53.588;10.176;2023-08-20T12:26:26;37.35;31.96;52.58;;
46393;Laerm;32099;53.588;10.176;2023-08-20T12:28:51;46.07;31.37;63.21;;
46393;Laerm;32099;53.588;10.176;2023-08-20T12:31:16;48.82;32.00;66.07;;
46393;Laerm;32099;53.588;10.176;2023-08-20T12:33:42;40.21;31.22;58.19;;
46393;Laerm;32099;53.588;10.176;2023-08-20T12:36:07;37.01;30.56;53.27;;
46393;Laerm;32099;53.588;10.176;2023-08-20T12:38:32;47.52;31.60;65.00;;
46393;Laerm;32099;53.588;10.176;2023-08-20T12:41:00;50.48;31.27;75.71;;
46393;Laerm;32099;53.588;10.176;2023-08-20T12:43:26;48.08;31.49;65.61;;
46393;Laerm;32099;53.588;10.176;2023-08-20T12:45:51;38.22;31.21;62.60;;
46393;Laerm;32099;53.588;10.176;2023-08-20T12:48:17;42.46;32.51;64.23;;
46393;Laerm;32099;53.588;10.176;2023-08-20T12:50:42;48.50;31.92;64.71;;
46393;Laerm;32099;53.588;10.176;2023-08-20T12:53:07;42.31;30.26;62.87;;
46393;Laerm;32099;53.588;10.176;2023-08-20T12:55:32;41.29;30.71;61.05;;
46393;Laerm;32099;53.588;10.176;2023-08-20T12:57:58;43.23;30.98;59.97;;
46393;Laerm;32099;53.588;10.176;2023-08-20T13:00:25;42.76;31.40;61.90;;
46393;Laerm;32099;53.588;10.176;2023-08-20T13:02:51;46.07;31.27;66.35;;
46393;Laerm;32099;53.588;10.176;2023-08-20T13:05:17;43.56;31.42;61.01;;
46393;Laerm;32099;53.588;10.176;2023-08-20T13:07:43;44.37;30.22;62.44;;
46393;Laerm;32099;53.588;10.176;2023-08-20T13:10:08;41.58;31.07;63.98;;
46393;Laerm;32099;53.588;10.176;2023-08-20T13:12:34;47.22;29.83;65.73;;
46393;Laerm;32099;53.588;10.176;2023-08-20T13:15:00;36.42;31.00;56.52;;
46393;Laerm;32099;53.588;10.176;2023-08-20T13:17:25;38.34;30.62;54.31;;
46393;Laerm;32099;53.588;10.176;2023-08-20T13:19:51;49.47;32.79;71.18;;
46393;Laerm;32099;53.588;10.176;2023-08-20T13:22:16;45.28;32.53;58.68;;
46393;Laerm;32099;53.588;10.176;2023-08-20T13:24:42;47.43;32.21;64.15;;
46393;Laerm;32099;53.588;10.176;2023-08-20T13:27:07;48.17;31.78;62.92;;
46393;Laerm;32099;53.588;10.176;2023-08-20T13:29:32;40.27;30.27;59.85;;
46393;Laerm;32099;53.588;10.176;2023-08-20T13:31:58;38.44;30.58;59.19;;
46393;Laerm;32099;53.588;10.176;2023-08-20T13:34:23;40.53;30.25;59.99;;
46393;Laerm;32099;53.588;10.176;2023-08-20T13:36:48;35.25;30.79;47.43;;
46393;Laerm;32099;53.588;10.176;2023-08-20T13:39:14;34.56;30.55;47.14;;